sensor_id;sensor_type;location;lat;lon;timestamp;temperature;humidity
59067;DHT22;44854;50.838;4.438;2022-08-24T05:34:28;19.70;99.90
59067;DHT22;44854;50.838;4.438;2022-08-24T05:36:53;19.70;99.90
59067;DHT22;44854;50.838;4.438;2022-08-24T05:39:19;19.70;99.90
59067;DHT22;44854;50.838;4.438;2022-08-24T05:41:45;19.70;99.90
59067;DHT22;44854;50.838;4.438;2022-08-24T05:44:12;19.80;99.90
59067;DHT22;44854;50.838;4.438;2022-08-24T05:46:38;19.80;99.90
59067;DHT22;44854;50.838;4.438;2022-08-24T05:49:04;19.90;99.90
59067;DHT22;44854;50.838;4.438;2022-08-24T05:51:30;19.90;99.90
59067;DHT22;44854;50.838;4.438;2022-08-24T05:53:56;20.00;99.90
59067;DHT22;44854;50.838;4.438;2022-08-24T05:56:21;20.00;99.90
59067;DHT22;44854;50.838;4.438;2022-08-24T05:58:47;20.00;99.90
59067;DHT22;44854;50.838;4.438;2022-08-24T06:01:19;20.10;99.90
59067;DHT22;44854;50.838;4.438;2022-08-24T06:03:46;20.20;99.90
59067;DHT22;44854;50.838;4.438;2022-08-24T06:06:12;20.40;99.90
59067;DHT22;44854;50.838;4.438;2022-08-24T06:08:39;20.50;99.90
59067;DHT22;44854;50.838;4.438;2022-08-24T06:11:05;20.60;99.90
59067;DHT22;44854;50.838;4.438;2022-08-24T06:13:31;20.70;99.90
59067;DHT22;44854;50.838;4.438;2022-08-24T06:16:01;20.80;99.90
59067;DHT22;44854;50.838;4.438;2022-08-24T06:18:27;20.80;99.90
59067;DHT22;44854;50.838;4.438;2022-08-24T06:20:52;20.80;99.90
59067;DHT22;44854;50.838;4.438;2022-08-24T06:23:18;21.00;99.90
59067;DHT22;44854;50.838;4.438;2022-08-24T06:25:44;21.10;99.90
59067;DHT22;44854;50.838;4.438;2022-08-24T06:28:28;21.30;99.90
59067;DHT22;44854;50.838;4.438;2022-08-24T06:31:04;21.40;99.90
59067;DHT22;44854;50.838;4.438;2022-08-24T06:33:31;21.50;99.90
59067;DHT22;44854;50.838;4.438;2022-08-24T06:35:56;21.60;99.90
59067;DHT22;44854;50.838;4.438;2022-08-24T06:38:22;21.80;99.90
59067;DHT22;44854;50.838;4.438;2022-08-24T06:40:47;21.80;99.90
59067;DHT22;44854;50.838;4.438;2022-08-24T06:43:13;21.80;99.90
59067;DHT22;44854;50.838;4.438;2022-08-24T06:45:39;21.90;99.90
59067;DHT22;44854;50.838;4.438;2022-08-24T06:48:05;21.90;99.90
59067;DHT22;44854;50.838;4.438;2022-08-24T06:50:30;22.00;99.90
59067;DHT22;44854;50.838;4.438;2022-08-24T06:52:56;22.10;99.90
59067;DHT22;44854;50.838;4.438;2022-08-24T06:55:21;22.20;99.90
59067;DHT22;44854;50.838;4.438;2022-08-24T06:57:47;22.30;99.90
59067;DHT22;44854;50.838;4.438;2022-08-24T07:00:13;22.50;99.90
59067;DHT22;44854;50.838;4.438;2022-08-24T07:02:38;22.60;99.90
59067;DHT22;44854;50.838;4.438;2022-08-24T07:05:05;22.60;99.90
59067;DHT22;44854;50.838;4.438;2022-08-24T07:07:31;22.70;99.90
59067;DHT22;44854;50.838;4.438;2022-08-24T07:09:58;22.90;99.90
59067;DHT22;44854;50.838;4.438;2022-08-24T07:12:23;23.00;99.90
59067;DHT22;44854;50.838;4.438;2022-08-24T07:14:51;23.10;99.90
59067;DHT22;44854;50.838;4.438;2022-08-24T07:17:17;23.20;99.90
59067;DHT22;44854;50.838;4.438;2022-08-24T07:19:43;23.30;99.90
59067;DHT22;44854;50.838;4.438;2022-08-24T07:22:10;23.30;99.90
59067;DHT22;44854;50.838;4.438;2022-08-24T07:24:36;23.50;99.90
59067;DHT22;44854;50.838;4.438;2022-08-24T07:27:02;23.50;99.90
59067;DHT22;44854;50.838;4.438;2022-08-24T07:29:28;23.60;99.90
59067;DHT22;44854;50.838;4.438;2022-08-24T07:31:53;23.90;99.90
59067;DHT22;44854;50.838;4.438;2022-08-24T07:34:19;23.90;99.90
59067;DHT22;44854;50.838;4.438;2022-08-24T07:36:44;24.10;99.90
59067;DHT22;44854;50.838;4.438;2022-08-24T07:39:10;24.30;99.90
59067;DHT22;44854;50.838;4.438;2022-08-24T07:41:37;24.50;99.90
59067;DHT22;44854;50.838;4.438;2022-08-24T07:44:03;24.50;99.90
59067;DHT22;44854;50.838;4.438;2022-08-24T07:46:28;24.70;99.90
59067;DHT22;44854;50.838;4.438;2022-08-24T07:48:54;24.90;99.90
59067;DHT22;44854;50.838;4.438;2022-08-24T07:51:20;24.90;99.90
59067;DHT22;44854;50.838;4.438;2022-08-24T07:53:46;24.90;99.90
59067;DHT22;44854;50.838;4.438;2022-08-24T07:56:14;25.10;99.90
59067;DHT22;44854;50.838;4.438;2022-08-24T07:58:40;24.90;99.90
59067;DHT22;44854;50.838;4.438;2022-08-24T08:01:05;25.10;99.90
59067;DHT22;44854;50.838;4.438;2022-08-24T08:03:32;25.20;99.90
59067;DHT22;44854;50.838;4.438;2022-08-24T08:06:00;25.30;99.90
59067;DHT22;44854;50.838;4.438;2022-08-24T08:08:26;25.30;99.90
59067;DHT22;44854;50.838;4.438;2022-08-24T08:10:52;25.40;99.90
59067;DHT22;44854;50.838;4.438;2022-08-24T08:13:17;25.40;99.90
59067;DHT22;44854;50.838;4.438;2022-08-24T08:15:46;25.40;99.90
59067;DHT22;44854;50.838;4.438;2022-08-24T08:18:12;25.50;99.90
59067;DHT22;44854;50.838;4.438;2022-08-24T08:20:38;25.30;99.90
59067;DHT22;44854;50.838;4.438;2022-08-24T08:23:04;25.30;99.90
59067;DHT22;44854;50.838;4.438;2022-08-24T08:25:49;25.30;99.90
59067;DHT22;44854;50.838;4.438;2022-08-24T08:28:17;25.50;99.90
59067;DHT22;44854;50.838;4.438;2022-08-24T08:30:43;25.60;99.90
59067;DHT22;44854;50.838;4.438;2022-08-24T08:33:09;25.70;99.90
59067;DHT22;44854;50.838;4.438;2022-08-24T08:35:35;25.70;99.90
59067;DHT22;44854;50.838;4.438;2022-08-24T08:38:02;25.80;99.90
59067;DHT22;44854;50.838;4.438;2022-08-24T08:40:40;25.90;99.90
59067;DHT22;44854;50.838;4.438;2022-08-24T08:43:22;26.00;99.90
59067;DHT22;44854;50.838;4.438;2022-08-24T08:59:14;26.20;99.90
59067;DHT22;44854;50.838;4.438;2022-08-24T09:07:15;26.20;99.90
59067;DHT22;44854;50.838;4.438;2022-08-24T09:15:08;26.50;99.90
59067;DHT22;44854;50.838;4.438;2022-08-24T09:20:22;26.20;99.90
59067;DHT22;44854;50.838;4.438;2022-08-24T09:22:54;26.30;99.90
59067;DHT22;44854;50.838;4.438;2022-08-24T09:25:38;26.60;99.90
59067;DHT22;44854;50.838;4.438;2022-08-24T09:30:55;26.90;99.90
59067;DHT22;44854;50.838;4.438;2022-08-24T09:33:26;27.00;99.90
59067;DHT22;44854;50.838;4.438;2022-08-24T09:36:12;27.10;99.90
59067;DHT22;44854;50.838;4.438;2022-08-24T09:38:57;27.00;99.90
59067;DHT22;44854;50.838;4.438;2022-08-24T09:59:52;28.00;99.90
59067;DHT22;44854;50.838;4.438;2022-08-24T10:04:52;28.20;99.90
59067;DHT22;44854;50.838;4.438;2022-08-24T10:07:26;28.20;99.90
59067;DHT22;44854;50.838;4.438;2022-08-24T10:30:38;28.60;98.00
59067;DHT22;44854;50.838;4.438;2022-08-24T10:35:35;29.10;97.60
59067;DHT22;44854;50.838;4.438;2022-08-24T10:38:13;29.20;97.20
59067;DHT22;44854;50.838;4.438;2022-08-24T10:54:17;29.40;95.70
59067;DHT22;44854;50.838;4.438;2022-08-24T10:57:00;29.40;95.20
59067;DHT22;44854;50.838;4.438;2022-08-24T11:04:27;29.80;94.50
59067;DHT22;44854;50.838;4.438;2022-08-24T11:12:16;30.20;94.30
59067;DHT22;44854;50.838;4.438;2022-08-24T11:14:44;29.60;94.20
59067;DHT22;44854;50.838;4.438;2022-08-24T11:17:21;29.50;94.10
59067;DHT22;44854;50.838;4.438;2022-08-24T11:19:47;29.60;93.30
59067;DHT22;44854;50.838;4.438;2022-08-24T11:24:53;29.90;93.70
59067;DHT22;44854;50.838;4.438;2022-08-24T11:29:54;29.90;93.40
59067;DHT22;44854;50.838;4.438;2022-08-24T11:35:03;30.20;92.00
59067;DHT22;44854;50.838;4.438;2022-08-24T11:37:33;30.30;92.20
59067;DHT22;44854;50.838;4.438;2022-08-24T11:39:59;30.50;91.80
59067;DHT22;44854;50.838;4.438;2022-08-24T11:42:34;30.30;91.60
59067;DHT22;44854;50.838;4.438;2022-08-24T11:45:07;30.60;91.60
59067;DHT22;44854;50.838;4.438;2022-08-24T11:47:40;30.90;91.30
59067;DHT22;44854;50.838;4.438;2022-08-24T11:55:14;31.00;90.10
59067;DHT22;44854;50.838;4.438;2022-08-24T12:00:11;31.10;89.90
59067;DHT22;44854;50.838;4.438;2022-08-24T12:13:47;31.20;86.70
59067;DHT22;44854;50.838;4.438;2022-08-24T12:21:30;31.30;86.30
59067;DHT22;44854;50.838;4.438;2022-08-24T12:24:00;31.40;85.20
59067;DHT22;44854;50.838;4.438;2022-08-24T12:26:40;31.40;84.80
59067;DHT22;44854;50.838;4.438;2022-08-24T12:34:02;31.00;85.90
59067;DHT22;44854;50.838;4.438;2022-08-24T12:36:40;31.00;86.50
59067;DHT22;44854;50.838;4.438;2022-08-24T12:39:13;31.10;85.40
59067;DHT22;44854;50.838;4.438;2022-08-24T12:44:25;31.20;85.20
59067;DHT22;44854;50.838;4.438;2022-08-24T12:46:53;31.60;83.50
59067;DHT22;44854;50.838;4.438;2022-08-24T12:49:29;32.00;82.50
59067;DHT22;44854;50.838;4.438;2022-08-24T12:57:06;31.50;82.20
59067;DHT22;44854;50.838;4.438;2022-08-24T12:59:37;31.50;82.40
59067;DHT22;44854;50.838;4.438;2022-08-24T13:02:07;31.90;82.00
59067;DHT22;44854;50.838;4.438;2022-08-24T13:17:41;32.10;80.00
59067;DHT22;44854;50.838;4.438;2022-08-24T13:20:15;32.40;79.70
59067;DHT22;44854;50.838;4.438;2022-08-24T13:22:59;32.10;79.50
59067;DHT22;44854;50.838;4.438;2022-08-24T13:25:40;31.70;80.10
59067;DHT22;44854;50.838;4.438;2022-08-24T13:28:26;32.20;79.90
59067;DHT22;44854;50.838;4.438;2022-08-24T13:31:04;32.20;79.50
59067;DHT22;44854;50.838;4.438;2022-08-24T13:51:47;31.60;80.10
59067;DHT22;44854;50.838;4.438;2022-08-24T13:54:50;31.40;80.60
59067;DHT22;44854;50.838;4.438;2022-08-24T14:04:54;32.00;78.50
59067;DHT22;44854;50.838;4.438;2022-08-24T14:07:23;32.30;77.70
59067;DHT22;44854;50.838;4.438;2022-08-24T14:20:32;32.10;76.20
59067;DHT22;44854;50.838;4.438;2022-08-24T14:23:11;31.70;77.10
59067;DHT22;44854;50.838;4.438;2022-08-24T14:25:43;31.80;78.00
59067;DHT22;44854;50.838;4.438;2022-08-24T14:30:46;31.90;79.80
59067;DHT22;44854;50.838;4.438;2022-08-24T14:46:18;31.00;80.70
59067;DHT22;44854;50.838;4.438;2022-08-24T14:48:54;31.10;80.40
59067;DHT22;44854;50.838;4.438;2022-08-24T14:51:31;31.00;78.50
59067;DHT22;44854;50.838;4.438;2022-08-24T15:11:43;31.30;79.70
59067;DHT22;44854;50.838;4.438;2022-08-24T15:14:19;31.20;80.40
59067;DHT22;44854;50.838;4.438;2022-08-24T15:16:48;31.20;80.70
59067;DHT22;44854;50.838;4.438;2022-08-24T15:24:43;31.50;79.40
59067;DHT22;44854;50.838;4.438;2022-08-24T15:29:26;31.40;80.30
59067;DHT22;44854;50.838;4.438;2022-08-24T15:31:59;31.40;81.30
59067;DHT22;44854;50.838;4.438;2022-08-24T15:37:36;31.20;79.70
59067;DHT22;44854;50.838;4.438;2022-08-24T15:40:14;31.20;79.80
59067;DHT22;44854;50.838;4.438;2022-08-24T15:42:40;31.20;81.10
59067;DHT22;44854;50.838;4.438;2022-08-24T15:45:06;31.10;80.50
59067;DHT22;44854;50.838;4.438;2022-08-24T15:47:34;31.30;80.50
59067;DHT22;44854;50.838;4.438;2022-08-24T15:50:01;31.40;79.50
59067;DHT22;44854;50.838;4.438;2022-08-24T15:52:45;31.30;79.60
59067;DHT22;44854;50.838;4.438;2022-08-24T15:57:55;31.40;79.10
59067;DHT22;44854;50.838;4.438;2022-08-24T16:00:22;31.30;79.20
59067;DHT22;44854;50.838;4.438;2022-08-24T16:05:44;31.30;79.30
59067;DHT22;44854;50.838;4.438;2022-08-24T16:08:10;31.40;78.40
59067;DHT22;44854;50.838;4.438;2022-08-24T16:15:43;31.50;77.80
59067;DHT22;44854;50.838;4.438;2022-08-24T16:18:09;31.50;77.80
59067;DHT22;44854;50.838;4.438;2022-08-24T16:20:35;31.90;77.60
59067;DHT22;44854;50.838;4.438;2022-08-24T16:23:02;31.80;75.60
59067;DHT22;44854;50.838;4.438;2022-08-24T16:30:45;31.50;76.50
59067;DHT22;44854;50.838;4.438;2022-08-24T16:36:11;31.30;77.30
59067;DHT22;44854;50.838;4.438;2022-08-24T16:38:38;31.20;78.10
59067;DHT22;44854;50.838;4.438;2022-08-24T16:41:09;31.00;78.40
59067;DHT22;44854;50.838;4.438;2022-08-24T16:43:36;30.90;78.70
59067;DHT22;44854;50.838;4.438;2022-08-24T16:46:03;30.80;78.50
59067;DHT22;44854;50.838;4.438;2022-08-24T16:48:29;31.00;78.90
59067;DHT22;44854;50.838;4.438;2022-08-24T16:50:55;31.10;78.50
59067;DHT22;44854;50.838;4.438;2022-08-24T16:53:24;31.20;78.30
59067;DHT22;44854;50.838;4.438;2022-08-24T16:55:50;31.20;78.30
59067;DHT22;44854;50.838;4.438;2022-08-24T16:58:16;31.20;78.10
59067;DHT22;44854;50.838;4.438;2022-08-24T17:00:42;31.20;78.30
59067;DHT22;44854;50.838;4.438;2022-08-24T17:03:10;30.80;78.90
59067;DHT22;44854;50.838;4.438;2022-08-24T17:05:36;30.80;79.30
59067;DHT22;44854;50.838;4.438;2022-08-24T17:08:04;30.70;79.20
59067;DHT22;44854;50.838;4.438;2022-08-24T17:10:30;30.90;79.00
59067;DHT22;44854;50.838;4.438;2022-08-24T17:12:56;30.90;79.30
59067;DHT22;44854;50.838;4.438;2022-08-24T17:15:22;30.80;79.10
59067;DHT22;44854;50.838;4.438;2022-08-24T17:17:55;31.00;79.10
59067;DHT22;44854;50.838;4.438;2022-08-24T17:20:22;30.80;79.00
59067;DHT22;44854;50.838;4.438;2022-08-24T17:22:48;30.80;79.70
59067;DHT22;44854;50.838;4.438;2022-08-24T17:25:13;30.80;79.90
59067;DHT22;44854;50.838;4.438;2022-08-24T17:27:39;30.90;80.20
59067;DHT22;44854;50.838;4.438;2022-08-24T17:30:05;30.90;80.30
59067;DHT22;44854;50.838;4.438;2022-08-24T17:32:31;30.90;80.40
59067;DHT22;44854;50.838;4.438;2022-08-24T17:34:57;30.90;82.00
59067;DHT22;44854;50.838;4.438;2022-08-24T17:37:23;30.80;82.50
59067;DHT22;44854;50.838;4.438;2022-08-24T17:39:51;30.70;82.80
59067;DHT22;44854;50.838;4.438;2022-08-24T17:42:18;30.60;82.00
59067;DHT22;44854;50.838;4.438;2022-08-24T17:44:44;30.50;82.60
59067;DHT22;44854;50.838;4.438;2022-08-24T17:47:09;30.50;81.80
59067;DHT22;44854;50.838;4.438;2022-08-24T17:49:37;30.50;82.40
59067;DHT22;44854;50.838;4.438;2022-08-24T17:52:04;30.40;82.80
59067;DHT22;44854;50.838;4.438;2022-08-24T17:54:29;30.40;83.30
59067;DHT22;44854;50.838;4.438;2022-08-24T17:56:55;30.20;84.30
59067;DHT22;44854;50.838;4.438;2022-08-24T17:59:24;30.10;84.80
59067;DHT22;44854;50.838;4.438;2022-08-24T18:01:57;30.00;85.70
59067;DHT22;44854;50.838;4.438;2022-08-24T18:04:24;30.00;85.50
59067;DHT22;44854;50.838;4.438;2022-08-24T18:06:52;30.10;85.70
59067;DHT22;44854;50.838;4.438;2022-08-24T18:09:21;30.20;86.00
59067;DHT22;44854;50.838;4.438;2022-08-24T18:11:48;30.00;86.40
59067;DHT22;44854;50.838;4.438;2022-08-24T18:14:14;29.90;87.00
59067;DHT22;44854;50.838;4.438;2022-08-24T18:16:39;30.00;87.20
59067;DHT22;44854;50.838;4.438;2022-08-24T18:19:05;30.10;87.20
59067;DHT22;44854;50.838;4.438;2022-08-24T18:21:31;30.00;87.60
59067;DHT22;44854;50.838;4.438;2022-08-24T18:23:57;30.00;87.70
59067;DHT22;44854;50.838;4.438;2022-08-24T18:26:26;30.00;87.90
59067;DHT22;44854;50.838;4.438;2022-08-24T18:28:57;29.90;88.30
59067;DHT22;44854;50.838;4.438;2022-08-24T18:31:23;29.80;88.70
59067;DHT22;44854;50.838;4.438;2022-08-24T18:33:49;29.80;89.00
59067;DHT22;44854;50.838;4.438;2022-08-24T18:36:15;29.80;89.00
59067;DHT22;44854;50.838;4.438;2022-08-24T18:38:41;29.70;89.20
59067;DHT22;44854;50.838;4.438;2022-08-24T18:41:07;29.70;89.40
59067;DHT22;44854;50.838;4.438;2022-08-24T18:43:34;29.60;90.10
59067;DHT22;44854;50.838;4.438;2022-08-24T18:45:59;29.50;90.10
59067;DHT22;44854;50.838;4.438;2022-08-24T18:48:25;29.60;90.30
59067;DHT22;44854;50.838;4.438;2022-08-24T18:50:51;29.30;90.50
59067;DHT22;44854;50.838;4.438;2022-08-24T18:53:17;29.30;90.70
59067;DHT22;44854;50.838;4.438;2022-08-24T18:55:43;29.10;90.90
59067;DHT22;44854;50.838;4.438;2022-08-24T18:58:10;29.10;91.00
59067;DHT22;44854;50.838;4.438;2022-08-24T19:00:36;29.10;91.10
59067;DHT22;44854;50.838;4.438;2022-08-24T19:03:03;29.10;91.10
59067;DHT22;44854;50.838;4.438;2022-08-24T19:05:30;29.10;91.60
59067;DHT22;44854;50.838;4.438;2022-08-24T19:07:55;29.00;91.70
59067;DHT22;44854;50.838;4.438;2022-08-24T19:10:23;29.00;92.00
59067;DHT22;44854;50.838;4.438;2022-08-24T19:12:50;28.90;92.50
59067;DHT22;44854;50.838;4.438;2022-08-24T19:15:17;28.90;92.70
59067;DHT22;44854;50.838;4.438;2022-08-24T19:17:43;28.70;93.00
59067;DHT22;44854;50.838;4.438;2022-08-24T19:20:08;28.60;93.30
59067;DHT22;44854;50.838;4.438;2022-08-24T19:22:34;28.50;93.40
59067;DHT22;44854;50.838;4.438;2022-08-24T19:25:00;28.40;93.40
59067;DHT22;44854;50.838;4.438;2022-08-24T19:27:28;28.40;93.30
59067;DHT22;44854;50.838;4.438;2022-08-24T19:29:53;28.30;93.10
59067;DHT22;44854;50.838;4.438;2022-08-24T19:32:22;28.30;93.00
59067;DHT22;44854;50.838;4.438;2022-08-24T19:34:48;28.20;93.50
59067;DHT22;44854;50.838;4.438;2022-08-24T19:37:14;28.10;94.10
59067;DHT22;44854;50.838;4.438;2022-08-24T19:39:40;28.10;94.30
59067;DHT22;44854;50.838;4.438;2022-08-24T19:42:05;28.00;94.50
59067;DHT22;44854;50.838;4.438;2022-08-24T19:44:31;27.90;94.10
59067;DHT22;44854;50.838;4.438;2022-08-24T19:47:16;28.00;94.30
59067;DHT22;44854;50.838;4.438;2022-08-24T19:49:51;27.80;94.70
59067;DHT22;44854;50.838;4.438;2022-08-24T19:52:16;27.70;94.70
59067;DHT22;44854;50.838;4.438;2022-08-24T19:54:43;27.70;95.30
59067;DHT22;44854;50.838;4.438;2022-08-24T19:59:57;27.60;94.90
59067;DHT22;44854;50.838;4.438;2022-08-24T20:02:24;27.60;95.10
59067;DHT22;44854;50.838;4.438;2022-08-24T20:04:49;27.50;95.10
59067;DHT22;44854;50.838;4.438;2022-08-24T20:07:15;27.50;95.30
59067;DHT22;44854;50.838;4.438;2022-08-24T20:09:42;27.40;95.50
59067;DHT22;44854;50.838;4.438;2022-08-24T20:12:07;27.40;95.80
59067;DHT22;44854;50.838;4.438;2022-08-24T20:14:33;27.40;95.90
59067;DHT22;44854;50.838;4.438;2022-08-24T20:16:59;27.20;96.70
59067;DHT22;44854;50.838;4.438;2022-08-24T20:19:25;27.00;97.10
59067;DHT22;44854;50.838;4.438;2022-08-24T20:21:51;26.90;97.20
59067;DHT22;44854;50.838;4.438;2022-08-24T20:24:16;26.70;97.60
59067;DHT22;44854;50.838;4.438;2022-08-24T20:26:42;26.70;97.40
59067;DHT22;44854;50.838;4.438;2022-08-24T20:29:09;26.60;97.30
59067;DHT22;44854;50.838;4.438;2022-08-24T20:31:36;26.60;97.80
59067;DHT22;44854;50.838;4.438;2022-08-24T20:34:02;26.50;98.20
59067;DHT22;44854;50.838;4.438;2022-08-24T20:36:35;26.40;98.30
59067;DHT22;44854;50.838;4.438;2022-08-24T20:39:04;26.30;98.60
59067;DHT22;44854;50.838;4.438;2022-08-24T20:41:30;26.40;98.40
59067;DHT22;44854;50.838;4.438;2022-08-24T20:43:56;26.40;98.10
59067;DHT22;44854;50.838;4.438;2022-08-24T20:46:22;26.40;98.10
59067;DHT22;44854;50.838;4.438;2022-08-24T20:48:48;26.30;98.20
59067;DHT22;44854;50.838;4.438;2022-08-24T20:51:14;26.30;98.20
59067;DHT22;44854;50.838;4.438;2022-08-24T20:53:39;26.30;98.30
59067;DHT22;44854;50.838;4.438;2022-08-24T20:56:06;26.30;98.40
59067;DHT22;44854;50.838;4.438;2022-08-24T20:58:33;26.30;98.40
59067;DHT22;44854;50.838;4.438;2022-08-24T21:01:02;26.20;98.40
59067;DHT22;44854;50.838;4.438;2022-08-24T21:03:27;26.10;99.00
59067;DHT22;44854;50.838;4.438;2022-08-24T21:05:53;26.00;99.10
59067;DHT22;44854;50.838;4.438;2022-08-24T21:08:18;25.90;99.70
59067;DHT22;44854;50.838;4.438;2022-08-24T21:10:44;25.80;99.90
59067;DHT22;44854;50.838;4.438;2022-08-24T21:13:10;25.60;99.90
59067;DHT22;44854;50.838;4.438;2022-08-24T21:15:36;25.60;99.90
59067;DHT22;44854;50.838;4.438;2022-08-24T21:18:02;25.50;99.90
59067;DHT22;44854;50.838;4.438;2022-08-24T21:20:27;25.40;99.90
59067;DHT22;44854;50.838;4.438;2022-08-24T21:22:53;25.40;99.90
59067;DHT22;44854;50.838;4.438;2022-08-24T21:25:19;25.40;99.90
59067;DHT22;44854;50.838;4.438;2022-08-24T21:27:45;25.40;99.90
59067;DHT22;44854;50.838;4.438;2022-08-24T21:30:12;25.40;99.90
59067;DHT22;44854;50.838;4.438;2022-08-24T21:32:38;25.40;99.90
59067;DHT22;44854;50.838;4.438;2022-08-24T21:35:22;25.40;99.90
59067;DHT22;44854;50.838;4.438;2022-08-24T21:37:48;25.40;99.90
59067;DHT22;44854;50.838;4.438;2022-08-24T21:40:14;25.20;99.90
59067;DHT22;44854;50.838;4.438;2022-08-24T21:42:40;25.20;99.90
59067;DHT22;44854;50.838;4.438;2022-08-24T21:45:06;25.20;99.90
59067;DHT22;44854;50.838;4.438;2022-08-24T21:47:31;25.10;99.90
59067;DHT22;44854;50.838;4.438;2022-08-24T21:49:57;25.00;99.90
59067;DHT22;44854;50.838;4.438;2022-08-24T21:52:23;24.90;99.90
59067;DHT22;44854;50.838;4.438;2022-08-24T21:54:48;24.80;99.90
59067;DHT22;44854;50.838;4.438;2022-08-24T21:57:14;24.70;99.90
59067;DHT22;44854;50.838;4.438;2022-08-24T21:59:39;24.70;99.90
